createdAt,value
2023-01-11T00:14:44.431Z,32.06
2023-01-11T00:34:44.422Z,32.05
2023-01-11T01:14:44.405Z,32.05
2023-01-11T01:34:43.885Z,32.06
2023-01-11T01:54:43.635Z,32.05
2023-01-11T02:14:44.256Z,32.05
2023-01-11T02:34:44.248Z,32.05
2023-01-11T02:54:44.381Z,32.06
2023-01-11T03:14:44.306Z,32.05
2023-01-11T03:34:44.466Z,32.05
2023-01-11T03:54:44.371Z,32.05
2023-01-11T04:14:44.388Z,32.05
2023-01-11T04:34:44.357Z,32.05
2023-01-11T04:54:44.203Z,32.05
2023-01-11T05:14:44.341Z,32.05
2023-01-11T05:34:44.338Z,32.05
2023-01-11T05:54:44.185Z,32.05
2023-01-11T06:14:44.343Z,32.05
2023-01-11T06:34:44.177Z,32.05
2023-01-11T06:54:44.305Z,32.05
2023-01-11T07:14:44.221Z,32.05
2023-01-11T07:34:43.801Z,32.05
2023-01-11T07:54:44.285Z,32.05
2023-01-11T08:14:43.755Z,32.05
2023-01-11T08:34:44.168Z,32.05
2023-01-11T08:54:43.735Z,32.05
2023-01-11T09:14:44.262Z,32.05
2023-01-11T09:34:45.961Z,32.06
2023-01-11T09:54:44.246Z,32.06
2023-01-11T10:18:24.834Z,32.06
2023-01-11T10:34:44.279Z,32.07
2023-01-11T10:54:46.215Z,32.07
2023-01-11T11:14:44.227Z,32.07
2023-01-11T11:34:44.253Z,32.08
2023-01-11T11:54:44.206Z,32.08
2023-01-11T12:14:44.204Z,32.09
2023-01-11T12:34:44.185Z,32.09
2023-01-11T12:54:44.199Z,32.09
2023-01-11T13:14:44.191Z,32.1
2023-01-11T13:34:45.411Z,32.1
2023-01-11T13:54:44.171Z,32.1
2023-01-11T14:54:44.955Z,32.12
2023-01-11T15:34:44.142Z,32.14
2023-01-11T15:54:44.143Z,32.15
2023-01-11T16:14:43.595Z,32.15
2023-01-11T16:34:42.996Z,32.17
2023-01-11T16:54:44.097Z,32.17
2023-01-11T17:14:43.712Z,32.18
2023-01-11T17:34:44.105Z,32.19
2023-01-11T17:54:44.100Z,32.2
2023-01-11T18:14:43.307Z,32.2
2023-01-11T18:34:44.097Z,32.21
2023-01-11T18:54:44.072Z,32.21
2023-01-11T19:14:44.054Z,32.22
2023-01-11T19:34:44.055Z,32.23
2023-01-11T20:14:44.062Z,32.24
2023-01-11T20:34:44.033Z,32.25
2023-01-11T20:54:44.024Z,32.26
2023-01-11T21:14:43.506Z,32.26
2023-01-11T21:34:44.035Z,32.27
2023-01-11T21:54:44.013Z,32.27
2023-01-11T22:14:43.999Z,32.27
2023-01-11T22:34:43.992Z,32.28
2023-01-11T22:54:43.983Z,32.28
2023-01-11T23:14:43.488Z,32.29
2023-01-11T23:34:43.972Z,32.29
2023-01-11T23:54:43.974Z,32.29
